Poy Sippi, WI (54967)

8:18 PM CDT on April 30, 2017 (GMT -0500)
Long Lake | | Change Station
Active Advisory: Flood Watch Active Notice: Flood Watch

Elev 912 ft 44.22 °N, 89.11 °W | Updated 11 seconds ago

Rain
Rain
38.5 °F
Feels Like 38 °F
N
1.3
Wind Variable Wind from NE
Gusts 2.5 mph

Today
High -- | Low -- °F
--% Chance of Precip.
Yesterday
High -- | Low -- °F
Precip. -- in
Pressure 29.83 in
Visibility 10.0 miles
Clouds Overcast 800 ft
Windchill 38 °F
Dew Point 38 °F
Humidity 99%
Rainfall 0.02 in
Snow Depth Not available.
5:48 AM 7:58 PM
Waxing Crescent, 28% visible
METAR KPCZ 010115Z AUTO 05009G15KT 10SM -RA OVC008 04/03 A2983 RMK AO2 T00410025
Pressure 29.83 in
Visibility 10.0 miles
Clouds Overcast 800 ft
Windchill 38 °F
Dew Point 38 °F
Humidity 99%
Rainfall 0.02 in
Snow Depth Not available.
5:48 AM 7:58 PM
Waxing Crescent, 28% visible
METAR KPCZ 010115Z AUTO 05009G15KT 10SM -RA OVC008 04/03 A2983 RMK AO2 T00410025

Get Your Daily Forecast Email!

Thanks for signing up!

Be on the lookout for a verification email in your inbox.

You'll start receiving severe weather alerts in your inbox..

×

10-Day Weather Forecast

Almanac

Astronomy

Apr. 30, 2017 Rise Set
Actual Time
Civil Twilight
Nautical Twilight
Astronomical Twilight
Moon
Length of Visible Light
Length of Day
Tomorrow will be .
, % of the Moon is Illuminated

Today's Extremes

State Highs State Lows

Community

WunderPhotos

WunderBlog® & News

Nearby

Air Quality

  Air Quality AQ Index Pollutant
Not available.

Snow Depth

Station Depth Elevation

Earthquake Activity

City Distance Mag. Time & Date
Minimum magnitude displayed is 2.5.

Coastal Water Temperatures

Place Temperature

Stations

Nearby Weather Stations

Station Location Temp. Windchill Dew Point Humidity Wind Precip. Elev Updated Type
                   

Watches & Warnings

Flood Watch
Issued: 4:47 AM CDT Apr. 28, 2017 – National Weather Service

The Flood Watch continues for
the Fox River near Berlin
* from late tonight to Wednesday morning.
* At 3:15 am Friday the stage was 12.9 feet.
* Minor flooding is possible.
* Flood stage is 13.0 feet.
* Forecast... flood stage may be reached by after midnight tomorrow.


Lat... Lon 4398 8899 4398 8888 4391 8888 4389 8901
      4395 8911 4396 8908